Terminal Aerodrome Forecast
Issued by NWS

Home | Current Version | Previous Version | Text Only | Print | Product List | Glossary On
Versions: 1 2 3 4 5 6 7 8 9 10 11 12 13 14 15 16 17 18 19 20
000
FTUS43 KOAX 282300 CCA
TAFSNY
TAF COR
KSNY 282323Z 2900/2924 32012KT P6SM VCSH SCT020 BKN045
      TEMPO 2900/2901 SHRA BKN035
     FM290300 30008KT P6SM SCT060
     FM291700 34010G20KT P6SM SCT060=

USA.gov is the U.S. government's official web portal to all federal, state and local government web resources and services.